Time;durP1;ratioP1;P1;durP2;ratioP2;P2;SDS_P1;SDS_P2;PMS_P1;PMS_P2;Temp;Humidity;BMP_temperature;BMP_pressure;BME280_temperature;BME280_humidity;BME280_pressure;Samples;Min_cycle;Max_cycle;Signal;HPM_P1;HPM_P2
2021/03/23 00:01:40;;;;;;;;;;;18.30;99.90;;;;;;4974819;28;19941;-81
2021/03/23 00:04:10;;;;;;;;;;;18.30;99.90;;;;;;4974413;28;19922;-81
2021/03/23 00:06:37;;;;;;;;;;;18.30;99.90;;;;;;4942110;28;19930;-82
2021/03/23 00:09:08;;;;;;;;;;;18.20;99.90;;;;;;4957361;28;19910;-84
2021/03/23 00:11:34;;;;;;;;;;;18.30;99.90;;;;;;4978084;28;19918;-82
2021/03/23 00:14:01;;;;;;;;;;;18.30;99.90;;;;;;4965934;28;19921;-82
2021/03/23 00:16:30;;;;;;;;;;;18.30;99.90;;;;;;4985781;28;19918;-84
2021/03/23 00:18:57;;;;;;;;;;;18.30;99.90;;;;;;4984180;28;19918;-83
2021/03/23 00:21:25;;;;;;;;;;;18.20;99.90;;;;;;4975307;28;19917;-82
2021/03/23 00:23:51;;;;;;;;;;;18.30;99.90;;;;;;4974830;28;20001;-82
2021/03/23 00:26:21;;;;;;;;;;;18.30;99.90;;;;;;4974033;28;19918;-85
2021/03/23 00:28:49;;;;;;;;;;;18.30;99.90;;;;;;4974682;28;19914;-84
2021/03/23 00:31:16;;;;;;;;;;;18.30;99.90;;;;;;4975250;28;19917;-82
2021/03/23 00:33:43;;;;;;;;;;;18.30;99.90;;;;;;4974485;28;19915;-81
2021/03/23 00:36:11;;;;;;;;;;;18.30;99.90;;;;;;4973665;28;19914;-85
2021/03/23 00:38:39;;;;;;;;;;;18.30;99.90;;;;;;4974568;28;19922;-84
2021/03/23 00:41:09;;;;;;;;;;;18.30;99.90;;;;;;4974717;28;19956;-83
2021/03/23 00:43:40;;;;;;;;;;;18.30;99.90;;;;;;4956641;28;19914;-81
2021/03/23 00:46:07;;;;;;;;;;;18.30;99.90;;;;;;4972748;28;19929;-81
2021/03/23 00:48:33;;;;;;;;;;;18.30;99.90;;;;;;4972746;28;19918;-83
2021/03/23 00:51:00;;;;;;;;;;;18.30;99.90;;;;;;4954730;28;19921;-82
2021/03/23 00:53:27;;;;;;;;;;;18.30;99.90;;;;;;4961310;28;20048;-82
2021/03/23 00:56:00;;;;;;;;;;;18.30;99.90;;;;;;4974305;28;19914;-85
2021/03/23 00:58:27;;;;;;;;;;;18.30;99.90;;;;;;4973369;28;20005;-83
2021/03/23 01:00:54;;;;;;;;;;;18.30;99.90;;;;;;4956193;28;19914;-82
2021/03/23 01:03:21;;;;;;;;;;;18.30;99.90;;;;;;4973186;28;19937;-88
2021/03/23 01:05:50;;;;;;;;;;;18.40;99.90;;;;;;4974721;28;19922;-88
2021/03/23 01:08:17;;;;;;;;;;;18.30;99.90;;;;;;4973928;28;20391;-81
2021/03/23 01:10:47;;;;;;;;;;;18.30;99.90;;;;;;4973842;28;19921;-83
2021/03/23 01:13:13;;;;;;;;;;;18.30;99.90;;;;;;4955980;28;19961;-83
2021/03/23 01:15:40;;;;;;;;;;;18.40;99.90;;;;;;4973712;28;19937;-82
2021/03/23 01:18:07;;;;;;;;;;;18.30;99.90;;;;;;4973644;28;20037;-82
2021/03/23 01:20:34;;;;;;;;;;;18.40;99.90;;;;;;4956160;28;20436;-83
2021/03/23 01:23:01;;;;;;;;;;;18.30;99.90;;;;;;4975620;28;20074;-81
2021/03/23 01:25:28;;;;;;;;;;;18.40;99.90;;;;;;4973729;28;19918;-79
2021/03/23 01:27:55;;;;;;;;;;;18.30;99.90;;;;;;4971456;28;19918;-84
2021/03/23 01:30:23;;;;;;;;;;;18.40;99.90;;;;;;4972883;28;19922;-85
2021/03/23 01:32:50;;;;;;;;;;;18.30;99.90;;;;;;4974671;28;19915;-81
2021/03/23 01:35:17;;;;;;;;;;;18.40;99.90;;;;;;4973860;28;19914;-85
2021/03/23 01:37:45;;;;;;;;;;;18.40;99.90;;;;;;4973953;28;19922;-86
2021/03/23 01:40:16;;;;;;;;;;;18.40;99.90;;;;;;4973447;28;19925;-86
2021/03/23 01:42:48;;;;;;;;;;;18.40;99.90;;;;;;4973600;28;19918;-85
2021/03/23 01:45:18;;;;;;;;;;;18.30;99.90;;;;;;4973230;28;19914;-83
2021/03/23 01:47:44;;;;;;;;;;;18.40;99.90;;;;;;4956122;28;19914;-82
2021/03/23 01:50:12;;;;;;;;;;;18.40;99.90;;;;;;4973794;28;19921;-86
2021/03/23 01:52:38;;;;;;;;;;;18.40;99.90;;;;;;4956161;28;19914;-85
2021/03/23 01:55:07;;;;;;;;;;;18.40;99.90;;;;;;4972738;28;19960;-84
2021/03/23 01:57:34;;;;;;;;;;;18.40;99.90;;;;;;4973183;28;19933;-84
2021/03/23 02:00:01;;;;;;;;;;;18.40;99.90;;;;;;4953254;28;19914;-82
2021/03/23 02:02:29;;;;;;;;;;;18.50;99.90;;;;;;4969168;28;20253;-83
2021/03/23 02:04:56;;;;;;;;;;;18.40;99.90;;;;;;4975675;28;20009;-84
2021/03/23 02:07:23;;;;;;;;;;;18.40;99.90;;;;;;4988181;28;20045;-81
2021/03/23 02:09:53;;;;;;;;;;;18.40;99.90;;;;;;4984988;28;19914;-82
2021/03/23 02:12:23;;;;;;;;;;;18.50;99.90;;;;;;4981270;28;19925;-83
2021/03/23 02:14:50;;;;;;;;;;;18.50;99.90;;;;;;4981223;28;19956;-84
2021/03/23 02:17:17;;;;;;;;;;;18.50;99.90;;;;;;4978310;28;19986;-83
2021/03/23 02:19:43;;;;;;;;;;;18.50;99.90;;;;;;4974471;28;19914;-84
2021/03/23 02:22:29;;;;;;;;;;;18.50;99.90;;;;;;4957422;28;19915;-88
2021/03/23 02:24:56;;;;;;;;;;;18.50;99.90;;;;;;4956301;28;19918;-88
2021/03/23 02:27:23;;;;;;;;;;;18.50;99.90;;;;;;4974004;28;19945;-87
2021/03/23 02:29:51;;;;;;;;;;;18.50;99.90;;;;;;4957026;28;19922;-85
2021/03/23 02:32:18;;;;;;;;;;;18.50;99.90;;;;;;4955993;28;19914;-86
2021/03/23 02:34:45;;;;;;;;;;;18.50;99.90;;;;;;4972375;28;19915;-86
2021/03/23 02:37:11;;;;;;;;;;;18.50;99.90;;;;;;4937211;29;20273;-89
2021/03/23 02:39:38;;;;;;;;;;;18.50;99.90;;;;;;4965366;28;19918;-88
2021/03/23 02:42:06;;;;;;;;;;;18.50;99.90;;;;;;4978501;28;19957;-87
2021/03/23 02:44:46;;;;;;;;;;;18.50;99.90;;;;;;4977759;28;19910;-87
2021/03/23 02:47:13;;;;;;;;;;;18.50;99.90;;;;;;4978042;28;19925;-87
2021/03/23 02:49:41;;;;;;;;;;;18.50;99.90;;;;;;4978369;28;19917;-86
2021/03/23 02:52:09;;;;;;;;;;;18.50;99.90;;;;;;4977762;28;19917;-86
2021/03/23 02:54:36;;;;;;;;;;;18.50;99.90;;;;;;4977788;28;19914;-86
2021/03/23 02:57:03;;;;;;;;;;;18.60;99.90;;;;;;4959223;28;19918;-87
2021/03/23 02:59:29;;;;;;;;;;;18.50;99.90;;;;;;4977520;28;19961;-87
2021/03/23 03:01:56;;;;;;;;;;;18.50;99.90;;;;;;4975611;28;19914;-87
2021/03/23 03:04:23;;;;;;;;;;;18.60;99.90;;;;;;4976514;28;19965;-88
2021/03/23 03:06:49;;;;;;;;;;;18.60;99.90;;;;;;4977707;28;19969;-85
2021/03/23 03:09:16;;;;;;;;;;;18.60;99.90;;;;;;4977519;28;19914;-86
2021/03/23 03:11:42;;;;;;;;;;;18.50;99.90;;;;;;4976608;28;19984;-87
2021/03/23 03:14:09;;;;;;;;;;;18.60;99.90;;;;;;4976270;28;19922;-86
2021/03/23 03:16:36;;;;;;;;;;;18.60;99.90;;;;;;4959483;28;19918;-85
2021/03/23 03:19:03;;;;;;;;;;;18.60;99.90;;;;;;4977604;28;19968;-85
2021/03/23 03:21:29;;;;;;;;;;;18.60;99.90;;;;;;4980016;28;19945;-86
2021/03/23 03:23:56;;;;;;;;;;;18.60;99.90;;;;;;4980738;28;19921;-86
2021/03/23 03:26:23;;;;;;;;;;;18.60;99.90;;;;;;4981182;28;19914;-85
2021/03/23 03:28:52;;;;;;;;;;;18.60;99.90;;;;;;4977197;28;19973;-87
2021/03/23 03:31:23;;;;;;;;;;;18.60;99.90;;;;;;4976180;28;19914;-85
2021/03/23 03:33:51;;;;;;;;;;;18.70;99.90;;;;;;4976010;28;19969;-86
2021/03/23 03:36:18;;;;;;;;;;;18.60;99.90;;;;;;4975642;28;20017;-84
2021/03/23 03:38:45;;;;;;;;;;;18.70;99.90;;;;;;4976369;28;19914;-85
2021/03/23 03:41:12;;;;;;;;;;;18.70;99.90;;;;;;4976405;28;19918;-86
2021/03/23 03:43:38;;;;;;;;;;;18.70;99.90;;;;;;4958081;28;20361;-85
2021/03/23 03:46:05;;;;;;;;;;;18.70;99.90;;;;;;4976708;28;20432;-86
2021/03/23 03:48:32;;;;;;;;;;;18.70;99.90;;;;;;4975027;28;19918;-88
2021/03/23 03:50:58;;;;;;;;;;;18.70;99.90;;;;;;4957982;28;19921;-86
2021/03/23 03:53:25;;;;;;;;;;;18.70;99.90;;;;;;4976972;28;20353;-87
2021/03/23 03:55:52;;;;;;;;;;;18.70;99.90;;;;;;4977183;28;20054;-87
2021/03/23 03:58:19;;;;;;;;;;;18.70;99.90;;;;;;4979550;28;19914;-85
2021/03/23 04:00:46;;;;;;;;;;;18.80;99.90;;;;;;4972807;28;19898;-84
2021/03/23 04:03:18;;;;;;;;;;;18.80;99.90;;;;;;4984612;28;20009;-85
2021/03/23 04:05:49;;;;;;;;;;;18.90;99.90;;;;;;4973722;28;19924;-85
2021/03/23 04:08:20;;;;;;;;;;;18.90;99.90;;;;;;4974316;28;19917;-85
2021/03/23 04:10:50;;;;;;;;;;;18.90;99.90;;;;;;4974716;28;19921;-86
2021/03/23 04:13:18;;;;;;;;;;;19.00;99.90;;;;;;4974515;28;19914;-86
2021/03/23 04:15:46;;;;;;;;;;;19.00;99.90;;;;;;4974350;28;19914;-85
2021/03/23 04:18:14;;;;;;;;;;;19.10;99.90;;;;;;4974584;28;19921;-85
2021/03/23 04:20:40;;;;;;;;;;;19.10;99.90;;;;;;4975237;28;20003;-86
2021/03/23 04:23:08;;;;;;;;;;;19.10;99.90;;;;;;4977253;28;20403;-86
2021/03/23 04:25:35;;;;;;;;;;;19.10;99.90;;;;;;4976713;28;21789;-86
2021/03/23 04:28:04;;;;;;;;;;;19.20;99.90;;;;;;4986724;28;19970;-86
2021/03/23 04:30:31;;;;;;;;;;;19.10;99.90;;;;;;4985745;28;19977;-89
2021/03/23 04:32:58;;;;;;;;;;;19.10;99.90;;;;;;4985280;28;19918;-88
2021/03/23 04:35:25;;;;;;;;;;;19.20;99.90;;;;;;4984774;28;20257;-91
2021/03/23 04:37:52;;;;;;;;;;;19.20;99.90;;;;;;4965534;28;19922;-85
2021/03/23 04:40:21;;;;;;;;;;;19.20;99.90;;;;;;4956764;28;19965;-87
2021/03/23 04:42:48;;;;;;;;;;;19.20;99.90;;;;;;4973921;28;19965;-86
2021/03/23 04:45:15;;;;;;;;;;;19.20;99.90;;;;;;4972683;28;19997;-87
2021/03/23 04:47:42;;;;;;;;;;;19.20;99.90;;;;;;4974496;28;19994;-87
2021/03/23 04:50:09;;;;;;;;;;;19.20;99.90;;;;;;4974364;28;19929;-87
2021/03/23 04:52:36;;;;;;;;;;;19.20;99.90;;;;;;4971270;28;19993;-86
2021/03/23 04:55:03;;;;;;;;;;;19.20;99.90;;;;;;4956241;28;19937;-88
2021/03/23 04:57:30;;;;;;;;;;;19.30;99.90;;;;;;4973834;28;20025;-84
2021/03/23 04:59:56;;;;;;;;;;;19.30;99.90;;;;;;4973629;28;19910;-84
2021/03/23 05:02:23;;;;;;;;;;;19.40;99.90;;;;;;4972438;28;19928;-84
2021/03/23 05:04:50;;;;;;;;;;;19.30;99.90;;;;;;4972790;28;19914;-84
2021/03/23 05:07:16;;;;;;;;;;;19.40;99.90;;;;;;4974098;28;19930;-88
2021/03/23 05:09:43;;;;;;;;;;;19.30;99.90;;;;;;4974618;28;19914;-89
2021/03/23 05:12:10;;;;;;;;;;;19.30;99.90;;;;;;4957548;28;20254;-89
2021/03/23 05:14:37;;;;;;;;;;;19.30;99.90;;;;;;4973990;28;19910;-88
2021/03/23 05:17:03;;;;;;;;;;;19.30;99.90;;;;;;4973245;28;19921;-88
2021/03/23 05:19:33;;;;;;;;;;;19.30;99.90;;;;;;4973035;28;19914;-87
2021/03/23 05:22:00;;;;;;;;;;;19.30;99.90;;;;;;4955288;28;19914;-88
2021/03/23 05:24:27;;;;;;;;;;;19.40;99.90;;;;;;4974300;28;19941;-88
2021/03/23 05:26:53;;;;;;;;;;;19.40;99.90;;;;;;4973048;28;20017;-88
2021/03/23 05:29:20;;;;;;;;;;;19.40;99.90;;;;;;4973514;28;19914;-89
2021/03/23 05:31:47;;;;;;;;;;;19.40;99.90;;;;;;4973831;28;19914;-87
2021/03/23 05:34:14;;;;;;;;;;;19.40;99.90;;;;;;4956708;28;19914;-87
2021/03/23 05:36:42;;;;;;;;;;;19.40;99.90;;;;;;4956264;28;20353;-86
2021/03/23 05:39:08;;;;;;;;;;;19.40;99.90;;;;;;4973518;28;20086;-88
2021/03/23 05:41:35;;;;;;;;;;;19.40;99.90;;;;;;4968479;28;19914;-88
2021/03/23 05:44:14;;;;;;;;;;;19.40;99.90;;;;;;4967902;28;20102;-88
2021/03/23 05:46:41;;;;;;;;;;;19.40;99.90;;;;;;4965856;28;19918;-87
2021/03/23 05:49:11;;;;;;;;;;;19.40;99.90;;;;;;4960568;28;19918;-88
2021/03/23 05:51:46;;;;;;;;;;;19.50;99.90;;;;;;4990343;28;20035;-88
2021/03/23 05:54:22;;;;;;;;;;;19.50;99.90;;;;;;4966387;28;19922;-88
2021/03/23 05:56:53;;;;;;;;;;;19.50;99.90;;;;;;4958067;28;20021;-88
2021/03/23 05:59:40;;;;;;;;;;;19.50;99.90;;;;;;4975663;28;19925;-88
2021/03/23 06:02:33;;;;;;;;;;;19.50;99.90;;;;;;4944291;28;19917;-91
2021/03/23 06:05:18;;;;;;;;;;;19.50;99.90;;;;;;4950710;28;19926;-91
2021/03/23 06:07:44;;;;;;;;;;;19.50;99.90;;;;;;4976800;28;19921;-85
2021/03/23 06:10:19;;;;;;;;;;;19.50;99.90;;;;;;4975570;28;19997;-87
2021/03/23 06:13:04;;;;;;;;;;;19.50;99.90;;;;;;4972119;28;19927;-86
2021/03/23 06:15:37;;;;;;;;;;;19.50;99.90;;;;;;4954607;28;20279;-86
2021/03/23 06:18:05;;;;;;;;;;;19.50;99.90;;;;;;4955675;28;20013;-87
2021/03/23 06:20:34;;;;;;;;;;;19.50;99.90;;;;;;4973023;28;19914;-87
2021/03/23 06:23:01;;;;;;;;;;;19.60;99.90;;;;;;4956089;28;19915;-84
2021/03/23 06:25:39;;;;;;;;;;;19.60;99.90;;;;;;4973999;28;19911;-87
2021/03/23 06:28:18;;;;;;;;;;;19.50;99.90;;;;;;4957250;28;19980;-86
2021/03/23 06:31:05;;;;;;;;;;;19.50;99.90;;;;;;4963619;28;19977;-87
2021/03/23 06:33:33;;;;;;;;;;;19.60;99.90;;;;;;4967684;28;20039;-88
2021/03/23 06:41:12;;;;;;;;;;;19.60;99.90;;;;;;4932817;29;19974;-81
2021/03/23 06:43:40;;;;;;;;;;;19.50;99.90;;;;;;4914904;29;20270;-79
2021/03/23 06:46:17;;;;;;;;;;;19.60;99.90;;;;;;4932124;29;20362;-82
2021/03/23 06:48:45;;;;;;;;;;;19.60;99.90;;;;;;4933438;29;19915;-80
2021/03/23 06:51:13;;;;;;;;;;;19.60;99.90;;;;;;4933144;29;19911;-81
2021/03/23 06:53:40;;;;;;;;;;;19.60;99.90;;;;;;4934844;29;20258;-78
2021/03/23 06:56:19;;;;;;;;;;;19.60;99.90;;;;;;4925218;29;19923;-83
2021/03/23 06:58:55;;;;;;;;;;;19.60;99.90;;;;;;4920850;29;19914;-80
2021/03/23 07:01:25;;;;;;;;;;;19.60;99.90;;;;;;4920629;29;19922;-79
2021/03/23 07:03:57;;;;;;;;;;;19.60;99.90;;;;;;4936864;29;19918;-79
2021/03/23 07:06:29;;;;;;;;;;;19.60;99.90;;;;;;4916698;29;19927;-83
2021/03/23 07:09:05;;;;;;;;;;;19.60;99.90;;;;;;4932800;29;20277;-79
2021/03/23 07:11:50;;;;;;;;;;;19.60;99.90;;;;;;4923065;29;19936;-79
2021/03/23 07:14:27;;;;;;;;;;;19.60;99.90;;;;;;4929966;29;19925;-84
2021/03/23 07:17:14;;;;;;;;;;;19.60;99.90;;;;;;4934292;29;20020;-80
2021/03/23 07:19:48;;;;;;;;;;;19.60;99.90;;;;;;4933505;29;19963;-84
2021/03/23 07:22:41;;;;;;;;;;;19.60;99.90;;;;;;4933448;29;19921;-82
2021/03/23 07:25:28;;;;;;;;;;;19.60;99.90;;;;;;4928499;29;19925;-83
2021/03/23 07:28:13;;;;;;;;;;;19.60;99.90;;;;;;4925799;29;19930;-82
2021/03/23 07:30:41;;;;;;;;;;;19.50;99.90;;;;;;4933652;29;20005;-81
2021/03/23 07:33:13;;;;;;;;;;;19.50;99.90;;;;;;4934499;29;19933;-80
2021/03/23 07:35:40;;;;;;;;;;;19.50;99.90;;;;;;4933339;29;19919;-81
2021/03/23 07:38:25;;;;;;;;;;;19.50;99.90;;;;;;4936121;29;19919;-84
2021/03/23 07:40:53;;;;;;;;;;;19.50;99.90;;;;;;4938347;29;20010;-81
2021/03/23 07:43:32;;;;;;;;;;;19.50;99.90;;;;;;4945537;29;19914;-81
2021/03/23 07:46:19;;;;;;;;;;;19.50;99.90;;;;;;4951972;29;19946;-83
2021/03/23 07:48:46;;;;;;;;;;;19.50;99.90;;;;;;4920108;29;19951;-81
2021/03/23 07:51:26;;;;;;;;;;;19.50;99.90;;;;;;4923814;29;19915;-84
2021/03/23 07:53:56;;;;;;;;;;;19.50;99.90;;;;;;4927799;29;19964;-85
2021/03/23 07:56:36;;;;;;;;;;;19.50;99.90;;;;;;4935108;29;20029;-84
2021/03/23 07:59:21;;;;;;;;;;;19.40;99.90;;;;;;4935276;29;19919;-83
2021/03/23 08:01:47;;;;;;;;;;;19.40;99.90;;;;;;4936487;29;19997;-84
2021/03/23 08:04:32;;;;;;;;;;;19.40;99.90;;;;;;4936752;29;19915;-81
2021/03/23 08:07:04;;;;;;;;;;;19.40;99.90;;;;;;4936739;29;19926;-81
2021/03/23 08:09:53;;;;;;;;;;;19.40;99.90;;;;;;4937020;29;19946;-84
2021/03/23 08:12:22;;;;;;;;;;;19.40;99.90;;;;;;4936775;29;19919;-86
2021/03/23 08:15:09;;;;;;;;;;;19.40;99.90;;;;;;4937183;29;19915;-82
2021/03/23 08:17:36;;;;;;;;;;;19.40;99.90;;;;;;4882079;29;20691;-85
2021/03/23 08:20:09;;;;;;;;;;;19.40;99.90;;;;;;4936196;29;19922;-82
2021/03/23 08:22:47;;;;;;;;;;;19.40;99.90;;;;;;4934475;29;19982;-83
2021/03/23 08:25:32;;;;;;;;;;;19.40;99.90;;;;;;4914490;29;19914;-84
2021/03/23 08:28:12;;;;;;;;;;;19.40;99.90;;;;;;4915006;29;19933;-81
2021/03/23 08:30:48;;;;;;;;;;;19.40;99.90;;;;;;4930957;29;20322;-82
2021/03/23 08:33:23;;;;;;;;;;;19.40;99.90;;;;;;4936224;29;20002;-82
2021/03/23 08:35:56;;;;;;;;;;;19.40;99.90;;;;;;4935119;29;20333;-87
2021/03/23 08:38:22;;;;;;;;;;;19.40;99.90;;;;;;4937065;29;19914;-87
2021/03/23 08:41:07;;;;;;;;;;;19.40;99.90;;;;;;4936783;29;19977;-85
2021/03/23 08:43:38;;;;;;;;;;;19.40;99.90;;;;;;4919348;29;19986;-79
2021/03/23 08:46:20;;;;;;;;;;;19.40;99.90;;;;;;4936074;29;19945;-86
2021/03/23 08:48:49;;;;;;;;;;;19.40;99.90;;;;;;4936117;29;19919;-86
2021/03/23 08:51:20;;;;;;;;;;;19.40;99.90;;;;;;4935974;29;20461;-87
2021/03/23 08:53:51;;;;;;;;;;;19.40;99.90;;;;;;4936501;29;19916;-88
2021/03/23 08:56:37;;;;;;;;;;;19.30;99.90;;;;;;4935855;29;19919;-79
2021/03/23 08:59:04;;;;;;;;;;;19.40;99.90;;;;;;4936453;29;19914;-83
2021/03/23 09:01:38;;;;;;;;;;;19.40;99.90;;;;;;4936805;29;19914;-82
2021/03/23 09:04:05;;;;;;;;;;;19.40;99.90;;;;;;4936182;29;19911;-82
2021/03/23 09:07:04;;;;;;;;;;;19.40;99.90;;;;;;4936620;29;20029;-83
2021/03/23 09:09:38;;;;;;;;;;;19.40;99.90;;;;;;4904603;29;20353;-78
2021/03/23 09:12:08;;;;;;;;;;;19.40;99.90;;;;;;4936131;29;20999;-81
2021/03/23 09:14:54;;;;;;;;;;;19.40;99.90;;;;;;4934905;29;19957;-83
2021/03/23 09:17:36;;;;;;;;;;;19.40;99.90;;;;;;4926262;29;19917;-84
2021/03/23 09:20:23;;;;;;;;;;;19.40;99.90;;;;;;4945339;29;20282;-88
2021/03/23 09:22:49;;;;;;;;;;;19.40;99.90;;;;;;4944235;29;19911;-80
2021/03/23 09:25:20;;;;;;;;;;;19.50;99.90;;;;;;4946167;29;20361;-85
2021/03/23 09:27:50;;;;;;;;;;;19.50;99.90;;;;;;4941950;29;20373;-87
2021/03/23 09:30:35;;;;;;;;;;;19.40;99.90;;;;;;4935964;29;20269;-88
2021/03/23 09:33:15;;;;;;;;;;;19.50;99.90;;;;;;4936712;29;19915;-83
2021/03/23 09:36:00;;;;;;;;;;;19.50;99.90;;;;;;4945336;29;19911;-80
2021/03/23 09:38:33;;;;;;;;;;;19.50;99.90;;;;;;4940975;29;20162;-83
2021/03/23 09:41:04;;;;;;;;;;;19.50;99.90;;;;;;4936493;29;19923;-80
2021/03/23 09:43:36;;;;;;;;;;;19.50;99.90;;;;;;4936976;29;19915;-85
2021/03/23 09:46:14;;;;;;;;;;;19.50;99.90;;;;;;4936239;29;19922;-87
2021/03/23 09:48:41;;;;;;;;;;;19.40;99.90;;;;;;4936389;29;20005;-88
2021/03/23 09:51:27;;;;;;;;;;;19.50;99.90;;;;;;4936065;29;19963;-85
2021/03/23 09:53:57;;;;;;;;;;;19.50;99.90;;;;;;4935766;29;20330;-88
2021/03/23 09:56:26;;;;;;;;;;;19.50;99.90;;;;;;4936194;29;19962;-87
2021/03/23 09:59:07;;;;;;;;;;;19.50;99.90;;;;;;4936131;29;19974;-84
2021/03/23 10:01:50;;;;;;;;;;;19.50;99.90;;;;;;4936062;29;19911;-84
2021/03/23 10:04:24;;;;;;;;;;;19.50;99.90;;;;;;4935651;29;19934;-83
2021/03/23 10:06:51;;;;;;;;;;;19.50;99.90;;;;;;4935216;29;19925;-83
2021/03/23 10:09:25;;;;;;;;;;;19.50;99.90;;;;;;4935864;29;19914;-80
2021/03/23 10:11:52;;;;;;;;;;;19.50;99.90;;;;;;4935889;29;19998;-82
2021/03/23 10:14:33;;;;;;;;;;;19.50;99.90;;;;;;4935511;29;19919;-82
2021/03/23 10:17:14;;;;;;;;;;;19.50;99.90;;;;;;4935887;29;19911;-84
2021/03/23 10:19:45;;;;;;;;;;;19.50;99.90;;;;;;4914503;29;20310;-85
2021/03/23 10:22:16;;;;;;;;;;;19.50;99.90;;;;;;4915932;29;20122;-82
2021/03/23 10:24:44;;;;;;;;;;;19.50;99.90;;;;;;4914779;29;19970;-81
2021/03/23 10:27:15;;;;;;;;;;;19.50;99.90;;;;;;4914828;29;19970;-81
2021/03/23 10:30:00;;;;;;;;;;;19.50;99.90;;;;;;4915032;29;19917;-81
2021/03/23 10:32:38;;;;;;;;;;;19.40;99.90;;;;;;4914186;29;19911;-85
2021/03/23 10:35:08;;;;;;;;;;;19.50;99.90;;;;;;4915220;29;19911;-83
2021/03/23 10:37:34;;;;;;;;;;;19.40;99.90;;;;;;4914813;29;19954;-83
2021/03/23 10:40:01;;;;;;;;;;;19.50;99.90;;;;;;4914377;29;19927;-82
2021/03/23 10:42:29;;;;;;;;;;;19.50;99.90;;;;;;4914764;29;20381;-87
2021/03/23 10:45:11;;;;;;;;;;;19.40;99.90;;;;;;4914612;29;19946;-84
2021/03/23 10:47:40;;;;;;;;;;;19.40;99.90;;;;;;4914093;29;19919;-85
2021/03/23 10:50:32;;;;;;;;;;;19.40;99.90;;;;;;4914985;29;19915;-86
2021/03/23 10:53:12;;;;;;;;;;;19.40;99.90;;;;;;4911847;29;20246;-87
2021/03/23 10:55:41;;;;;;;;;;;19.40;99.90;;;;;;4915412;29;19922;-87
2021/03/23 10:58:15;;;;;;;;;;;19.40;99.90;;;;;;4914504;29;20006;-91
2021/03/23 11:00:42;;;;;;;;;;;19.40;99.90;;;;;;4918213;29;20112;-85
2021/03/23 11:03:13;;;;;;;;;;;19.30;99.90;;;;;;4918576;29;19918;-83
2021/03/23 11:05:50;;;;;;;;;;;19.30;99.90;;;;;;4918388;29;19946;-89
2021/03/23 11:08:17;;;;;;;;;;;19.30;99.90;;;;;;4920101;29;20422;-86
2021/03/23 11:10:44;;;;;;;;;;;19.40;99.90;;;;;;4934344;29;19934;-85
2021/03/23 11:13:12;;;;;;;;;;;19.30;99.90;;;;;;4936260;29;19926;-83
2021/03/23 11:15:40;;;;;;;;;;;19.40;99.90;;;;;;4936350;29;19915;-81
2021/03/23 11:18:17;;;;;;;;;;;19.40;99.90;;;;;;4919572;29;20286;-82
2021/03/23 11:20:45;;;;;;;;;;;19.30;99.90;;;;;;4936858;29;19918;-79
2021/03/23 11:23:18;;;;;;;;;;;19.40;99.90;;;;;;4938953;29;20314;-82
2021/03/23 11:25:46;;;;;;;;;;;19.30;99.90;;;;;;4946146;29;19925;-82
2021/03/23 11:28:19;;;;;;;;;;;19.40;99.90;;;;;;4952925;29;19978;-80
2021/03/23 11:30:46;;;;;;;;;;;19.30;99.90;;;;;;4944898;29;19915;-85
2021/03/23 11:33:16;;;;;;;;;;;19.40;99.90;;;;;;4937803;29;20013;-83
2021/03/23 11:35:49;;;;;;;;;;;19.40;99.90;;;;;;4936765;29;19915;-81
2021/03/23 11:38:17;;;;;;;;;;;19.30;99.90;;;;;;4935988;29;19915;-82
2021/03/23 11:40:44;;;;;;;;;;;19.30;99.90;;;;;;4937609;29;19923;-80
2021/03/23 11:43:15;;;;;;;;;;;19.30;99.90;;;;;;4943868;29;19915;-80
2021/03/23 11:45:44;;;;;;;;;;;19.30;99.90;;;;;;4924407;29;19915;-82
2021/03/23 11:48:13;;;;;;;;;;;19.30;99.90;;;;;;4930990;29;19915;-81
2021/03/23 11:50:40;;;;;;;;;;;19.30;99.90;;;;;;4926844;29;19921;-81
2021/03/23 11:53:08;;;;;;;;;;;19.20;99.90;;;;;;4938605;29;20005;-82
2021/03/23 11:55:36;;;;;;;;;;;19.20;99.90;;;;;;4936968;29;19915;-81
2021/03/23 11:58:04;;;;;;;;;;;19.10;99.90;;;;;;4936493;29;19956;-82
2021/03/23 12:00:31;;;;;;;;;;;19.20;99.90;;;;;;4935710;29;19911;-81
2021/03/23 12:03:01;;;;;;;;;;;19.20;99.90;;;;;;4917918;29;20266;-80
2021/03/23 12:05:29;;;;;;;;;;;19.30;99.90;;;;;;4918591;29;19918;-82
2021/03/23 12:08:03;;;;;;;;;;;19.20;99.90;;;;;;4935417;29;19923;-80
2021/03/23 12:10:33;;;;;;;;;;;19.20;99.90;;;;;;4935873;29;19915;-81
2021/03/23 12:13:14;;;;;;;;;;;19.10;99.90;;;;;;4935343;29;19918;-81
2021/03/23 12:15:45;;;;;;;;;;;19.10;99.90;;;;;;4927646;29;19970;-81
2021/03/23 12:18:15;;;;;;;;;;;19.10;99.90;;;;;;4927634;29;19919;-83
2021/03/23 12:20:42;;;;;;;;;;;19.10;99.90;;;;;;4934487;29;19931;-85
2021/03/23 12:23:09;;;;;;;;;;;19.10;99.90;;;;;;4917657;29;19923;-82
2021/03/23 12:25:36;;;;;;;;;;;19.10;99.90;;;;;;4935419;29;19918;-82
2021/03/23 12:28:03;;;;;;;;;;;19.10;99.90;;;;;;4935368;29;19963;-81
2021/03/23 12:30:30;;;;;;;;;;;19.00;99.90;;;;;;4933706;29;19923;-82
2021/03/23 12:32:56;;;;;;;;;;;19.00;99.90;;;;;;4935478;29;19911;-82
2021/03/23 12:35:25;;;;;;;;;;;19.00;99.90;;;;;;4935294;29;19914;-82
2021/03/23 12:37:54;;;;;;;;;;;19.00;99.90;;;;;;4935519;29;19918;-82
2021/03/23 12:40:22;;;;;;;;;;;19.10;99.90;;;;;;4934398;29;19947;-81
2021/03/23 12:42:48;;;;;;;;;;;19.10;99.90;;;;;;4935042;29;19914;-81
2021/03/23 12:45:35;;;;;;;;;;;19.10;99.90;;;;;;4935597;29;19962;-82
2021/03/23 12:48:02;;;;;;;;;;;19.10;99.90;;;;;;4917618;29;19947;-80
2021/03/23 12:50:29;;;;;;;;;;;19.10;99.90;;;;;;4934400;29;19932;-81
2021/03/23 12:52:57;;;;;;;;;;;19.00;99.90;;;;;;4935381;29;20341;-82
2021/03/23 12:55:26;;;;;;;;;;;19.00;99.90;;;;;;4934620;29;19914;-81
2021/03/23 12:57:55;;;;;;;;;;;18.90;99.90;;;;;;4935086;29;20358;-81
2021/03/23 13:00:26;;;;;;;;;;;19.00;99.90;;;;;;4917279;29;19931;-81
2021/03/23 13:02:53;;;;;;;;;;;18.90;99.90;;;;;;4934965;29;19911;-81
2021/03/23 13:05:21;;;;;;;;;;;19.00;99.90;;;;;;4935476;29;20005;-81
2021/03/23 13:07:48;;;;;;;;;;;18.90;99.90;;;;;;4934450;29;20282;-82
2021/03/23 13:10:24;;;;;;;;;;;18.90;99.90;;;;;;4934461;29;19977;-81
2021/03/23 13:12:51;;;;;;;;;;;18.90;99.90;;;;;;4934530;29;19915;-81
2021/03/23 13:15:19;;;;;;;;;;;18.90;99.90;;;;;;4934850;29;19911;-81
2021/03/23 13:17:46;;;;;;;;;;;19.00;99.90;;;;;;4934870;29;19918;-81
2021/03/23 13:20:13;;;;;;;;;;;19.00;99.90;;;;;;4935375;29;19914;-82
2021/03/23 13:22:51;;;;;;;;;;;18.90;99.90;;;;;;4939455;29;19914;-82
2021/03/23 13:25:37;;;;;;;;;;;18.90;99.90;;;;;;4937967;29;20693;-81
2021/03/23 13:28:12;;;;;;;;;;;18.90;99.90;;;;;;4934543;29;20374;-81
2021/03/23 13:30:39;;;;;;;;;;;18.90;99.90;;;;;;4933062;29;20347;-79
2021/03/23 13:33:06;;;;;;;;;;;19.00;99.90;;;;;;4934283;29;20017;-79
2021/03/23 13:35:33;;;;;;;;;;;18.90;99.90;;;;;;4917012;29;19917;-79
2021/03/23 13:37:59;;;;;;;;;;;18.90;99.90;;;;;;4934321;29;19915;-80
2021/03/23 13:40:30;;;;;;;;;;;18.90;99.90;;;;;;4933807;29;19922;-80
2021/03/23 13:43:01;;;;;;;;;;;18.90;99.90;;;;;;4934170;29;20347;-80
2021/03/23 13:45:35;;;;;;;;;;;18.90;99.90;;;;;;4934311;29;20005;-80
2021/03/23 13:48:02;;;;;;;;;;;18.90;99.90;;;;;;4916024;29;20366;-81
2021/03/23 13:50:29;;;;;;;;;;;18.90;99.90;;;;;;4933689;29;19926;-81
2021/03/23 13:53:02;;;;;;;;;;;18.90;99.90;;;;;;4933881;29;19954;-81
2021/03/23 13:55:36;;;;;;;;;;;18.80;99.90;;;;;;4933384;29;19957;-80
2021/03/23 13:58:03;;;;;;;;;;;18.80;99.90;;;;;;4934205;29;20294;-81
2021/03/23 14:00:35;;;;;;;;;;;18.80;99.90;;;;;;4933589;29;19918;-78
2021/03/23 14:03:03;;;;;;;;;;;18.80;99.90;;;;;;4933932;29;20002;-80
2021/03/23 14:05:30;;;;;;;;;;;18.80;99.90;;;;;;4940063;29;19978;-81
2021/03/23 14:07:59;;;;;;;;;;;18.80;99.90;;;;;;4924176;29;19926;-78
2021/03/23 14:10:27;;;;;;;;;;;18.80;99.90;;;;;;4942000;29;19914;-79
2021/03/23 14:12:56;;;;;;;;;;;18.90;99.90;;;;;;4942099;29;19915;-80
2021/03/23 14:15:24;;;;;;;;;;;18.90;99.90;;;;;;4940832;29;20358;-82
2021/03/23 14:17:51;;;;;;;;;;;19.00;99.90;;;;;;4934863;29;19911;-80
2021/03/23 14:20:19;;;;;;;;;;;19.00;99.90;;;;;;4932970;29;19919;-80
2021/03/23 14:22:46;;;;;;;;;;;19.10;99.90;;;;;;4933682;29;19911;-80
2021/03/23 14:25:16;;;;;;;;;;;19.10;99.90;;;;;;4933804;29;19911;-82
2021/03/23 14:27:42;;;;;;;;;;;19.10;99.90;;;;;;4932995;29;19922;-81
2021/03/23 14:30:16;;;;;;;;;;;19.00;99.90;;;;;;4916229;29;20395;-80
2021/03/23 14:32:45;;;;;;;;;;;19.10;99.90;;;;;;4933946;29;19911;-82
2021/03/23 14:35:12;;;;;;;;;;;19.10;99.90;;;;;;4919701;29;20309;-81
2021/03/23 14:37:43;;;;;;;;;;;19.00;99.90;;;;;;4936145;29;19919;-80
2021/03/23 14:40:24;;;;;;;;;;;19.00;99.90;;;;;;4936832;29;19950;-82
2021/03/23 14:42:51;;;;;;;;;;;19.00;99.90;;;;;;4936524;29;19949;-82